sensor_id;sensor_type;location;lat;lon;timestamp;P1;durP1;ratioP1;P2;durP2;ratioP2
67566;SDS011;54394;53.540;49.402;2022-08-04T00:02:55;17.73;;;6.25;;
67566;SDS011;54394;53.540;49.402;2022-08-04T00:36:25;13.43;;;5.72;;
67566;SDS011;54394;53.540;49.402;2022-08-04T00:38:51;9.35;;;6.05;;
67566;SDS011;54394;53.540;49.402;2022-08-04T00:58:28;8.55;;;5.43;;
67566;SDS011;54394;53.540;49.402;2022-08-04T01:01:03;9.15;;;5.90;;
67566;SDS011;54394;53.540;49.402;2022-08-04T01:09:50;7.95;;;5.87;;
67566;SDS011;54394;53.540;49.402;2022-08-04T01:18:04;16.05;;;6.20;;
67566;SDS011;54394;53.540;49.402;2022-08-04T01:20:40;9.43;;;6.03;;
67566;SDS011;54394;53.540;49.402;2022-08-04T01:23:28;7.40;;;5.00;;
67566;SDS011;54394;53.540;49.402;2022-08-04T01:31:32;13.80;;;5.45;;
67566;SDS011;54394;53.540;49.402;2022-08-04T01:34:04;10.40;;;6.43;;
67566;SDS011;54394;53.540;49.402;2022-08-04T01:36:34;10.70;;;5.55;;
67566;SDS011;54394;53.540;49.402;2022-08-04T01:39:01;11.95;;;6.60;;
67566;SDS011;54394;53.540;49.402;2022-08-04T01:41:46;21.65;;;5.90;;
67566;SDS011;54394;53.540;49.402;2022-08-04T01:44:12;12.15;;;5.85;;
67566;SDS011;54394;53.540;49.402;2022-08-04T01:46:39;10.35;;;5.72;;
67566;SDS011;54394;53.540;49.402;2022-08-04T01:49:05;11.05;;;6.78;;
67566;SDS011;54394;53.540;49.402;2022-08-04T01:51:32;12.37;;;6.37;;
67566;SDS011;54394;53.540;49.402;2022-08-04T01:54:00;10.48;;;6.85;;
67566;SDS011;54394;53.540;49.402;2022-08-04T01:56:26;17.83;;;10.23;;
67566;SDS011;54394;53.540;49.402;2022-08-04T01:58:55;10.88;;;6.90;;
67566;SDS011;54394;53.540;49.402;2022-08-04T02:01:22;20.00;;;6.20;;
67566;SDS011;54394;53.540;49.402;2022-08-04T02:03:48;14.57;;;6.32;;
67566;SDS011;54394;53.540;49.402;2022-08-04T02:06:21;10.50;;;6.72;;
67566;SDS011;54394;53.540;49.402;2022-08-04T02:08:59;9.85;;;6.25;;
67566;SDS011;54394;53.540;49.402;2022-08-04T02:11:29;12.75;;;5.75;;
67566;SDS011;54394;53.540;49.402;2022-08-04T02:16:32;12.85;;;5.90;;
67566;SDS011;54394;53.540;49.402;2022-08-04T02:21:56;11.30;;;5.90;;
67566;SDS011;54394;53.540;49.402;2022-08-04T02:24:24;8.35;;;6.87;;
67566;SDS011;54394;53.540;49.402;2022-08-04T02:26:52;11.93;;;6.75;;
67566;SDS011;54394;53.540;49.402;2022-08-04T02:29:19;11.30;;;6.70;;
67566;SDS011;54394;53.540;49.402;2022-08-04T02:31:52;11.85;;;6.60;;
67566;SDS011;54394;53.540;49.402;2022-08-04T02:34:41;14.95;;;6.53;;
67566;SDS011;54394;53.540;49.402;2022-08-04T02:37:17;10.40;;;6.57;;
67566;SDS011;54394;53.540;49.402;2022-08-04T02:39:45;13.65;;;6.60;;
67566;SDS011;54394;53.540;49.402;2022-08-04T02:42:12;8.63;;;6.70;;
67566;SDS011;54394;53.540;49.402;2022-08-04T02:44:39;13.48;;;7.37;;
67566;SDS011;54394;53.540;49.402;2022-08-04T02:47:06;10.40;;;6.28;;
67566;SDS011;54394;53.540;49.402;2022-08-04T02:49:34;9.30;;;6.45;;
67566;SDS011;54394;53.540;49.402;2022-08-04T02:52:01;15.93;;;7.50;;
67566;SDS011;54394;53.540;49.402;2022-08-04T02:54:37;11.45;;;7.62;;
67566;SDS011;54394;53.540;49.402;2022-08-04T02:57:08;14.87;;;6.80;;
67566;SDS011;54394;53.540;49.402;2022-08-04T02:59:42;11.07;;;6.85;;
67566;SDS011;54394;53.540;49.402;2022-08-04T03:02:20;12.27;;;7.10;;
67566;SDS011;54394;53.540;49.402;2022-08-04T03:04:56;12.60;;;7.35;;
67566;SDS011;54394;53.540;49.402;2022-08-04T03:10:25;13.15;;;6.62;;
67566;SDS011;54394;53.540;49.402;2022-08-04T03:30:10;16.95;;;8.15;;
67566;SDS011;54394;53.540;49.402;2022-08-04T04:01:11;19.90;;;11.30;;
67566;SDS011;54394;53.540;49.402;2022-08-04T04:06:44;15.65;;;11.15;;
67566;SDS011;54394;53.540;49.402;2022-08-04T04:09:27;19.52;;;11.70;;
67566;SDS011;54394;53.540;49.402;2022-08-04T04:12:41;21.30;;;13.05;;
67566;SDS011;54394;53.540;49.402;2022-08-04T04:18:19;22.85;;;12.65;;
67566;SDS011;54394;53.540;49.402;2022-08-04T04:20:52;28.62;;;12.95;;
67566;SDS011;54394;53.540;49.402;2022-08-04T04:26:06;23.83;;;13.88;;
67566;SDS011;54394;53.540;49.402;2022-08-04T04:31:37;24.10;;;13.75;;
67566;SDS011;54394;53.540;49.402;2022-08-04T04:45:34;51.05;;;20.08;;
67566;SDS011;54394;53.540;49.402;2022-08-04T04:51:04;46.95;;;16.50;;
67566;SDS011;54394;53.540;49.402;2022-08-04T04:56:27;50.33;;;18.73;;
67566;SDS011;54394;53.540;49.402;2022-08-04T04:59:00;54.25;;;21.92;;
67566;SDS011;54394;53.540;49.402;2022-08-04T05:12:33;57.85;;;17.65;;
67566;SDS011;54394;53.540;49.402;2022-08-04T05:15:02;45.85;;;18.40;;
67566;SDS011;54394;53.540;49.402;2022-08-04T05:17:36;49.63;;;19.40;;
67566;SDS011;54394;53.540;49.402;2022-08-04T05:20:15;38.78;;;20.00;;
67566;SDS011;54394;53.540;49.402;2022-08-04T05:22:57;67.65;;;32.00;;
67566;SDS011;54394;53.540;49.402;2022-08-04T05:25:28;70.30;;;35.90;;
67566;SDS011;54394;53.540;49.402;2022-08-04T05:28:02;74.95;;;33.65;;
67566;SDS011;54394;53.540;49.402;2022-08-04T05:30:32;64.47;;;29.73;;
67566;SDS011;54394;53.540;49.402;2022-08-04T05:33:24;82.35;;;33.88;;
67566;SDS011;54394;53.540;49.402;2022-08-04T05:35:51;56.97;;;28.70;;
67566;SDS011;54394;53.540;49.402;2022-08-04T05:38:21;96.63;;;47.55;;
67566;SDS011;54394;53.540;49.402;2022-08-04T05:40:48;60.75;;;29.83;;
67566;SDS011;54394;53.540;49.402;2022-08-04T05:43:14;74.32;;;40.30;;
67566;SDS011;54394;53.540;49.402;2022-08-04T05:45:41;83.10;;;38.35;;
67566;SDS011;54394;53.540;49.402;2022-08-04T05:48:09;78.32;;;35.75;;
67566;SDS011;54394;53.540;49.402;2022-08-04T05:50:35;81.72;;;36.05;;
67566;SDS011;54394;53.540;49.402;2022-08-04T05:53:02;53.95;;;25.65;;
67566;SDS011;54394;53.540;49.402;2022-08-04T05:55:28;49.42;;;28.70;;
67566;SDS011;54394;53.540;49.402;2022-08-04T05:57:57;70.82;;;33.72;;
67566;SDS011;54394;53.540;49.402;2022-08-04T06:00:24;59.63;;;31.83;;
67566;SDS011;54394;53.540;49.402;2022-08-04T06:02:51;60.50;;;28.45;;
67566;SDS011;54394;53.540;49.402;2022-08-04T06:05:18;57.38;;;21.80;;
67566;SDS011;54394;53.540;49.402;2022-08-04T06:07:44;44.53;;;20.77;;
67566;SDS011;54394;53.540;49.402;2022-08-04T06:10:11;40.03;;;20.58;;
67566;SDS011;54394;53.540;49.402;2022-08-04T06:15:11;44.03;;;19.42;;
67566;SDS011;54394;53.540;49.402;2022-08-04T06:17:41;36.47;;;18.55;;
67566;SDS011;54394;53.540;49.402;2022-08-04T06:20:14;45.63;;;20.37;;
67566;SDS011;54394;53.540;49.402;2022-08-04T06:22:40;48.83;;;23.92;;
67566;SDS011;54394;53.540;49.402;2022-08-04T06:25:07;55.97;;;23.27;;
67566;SDS011;54394;53.540;49.402;2022-08-04T06:27:36;74.53;;;26.90;;
67566;SDS011;54394;53.540;49.402;2022-08-04T06:30:02;39.10;;;17.80;;
67566;SDS011;54394;53.540;49.402;2022-08-04T06:32:31;53.53;;;22.83;;
67566;SDS011;54394;53.540;49.402;2022-08-04T06:35:13;46.17;;;18.65;;
67566;SDS011;54394;53.540;49.402;2022-08-04T06:37:42;46.60;;;17.98;;
67566;SDS011;54394;53.540;49.402;2022-08-04T06:40:11;37.30;;;17.73;;
67566;SDS011;54394;53.540;49.402;2022-08-04T06:42:39;43.80;;;19.73;;
67566;SDS011;54394;53.540;49.402;2022-08-04T06:45:06;39.38;;;15.25;;
67566;SDS011;54394;53.540;49.402;2022-08-04T06:47:36;34.83;;;16.60;;
67566;SDS011;54394;53.540;49.402;2022-08-04T06:50:03;38.50;;;16.23;;
67566;SDS011;54394;53.540;49.402;2022-08-04T06:52:30;27.98;;;14.80;;
67566;SDS011;54394;53.540;49.402;2022-08-04T06:54:56;35.97;;;14.20;;
67566;SDS011;54394;53.540;49.402;2022-08-04T06:57:23;28.65;;;13.88;;
67566;SDS011;54394;53.540;49.402;2022-08-04T06:59:56;27.42;;;12.52;;
67566;SDS011;54394;53.540;49.402;2022-08-04T07:02:25;31.25;;;13.77;;
67566;SDS011;54394;53.540;49.402;2022-08-04T07:04:52;24.52;;;11.85;;
67566;SDS011;54394;53.540;49.402;2022-08-04T07:07:18;31.27;;;13.73;;
67566;SDS011;54394;53.540;49.402;2022-08-04T07:09:45;25.42;;;10.77;;
67566;SDS011;54394;53.540;49.402;2022-08-04T07:12:11;14.13;;;7.35;;
67566;SDS011;54394;53.540;49.402;2022-08-04T07:14:38;13.95;;;7.60;;
67566;SDS011;54394;53.540;49.402;2022-08-04T07:17:05;13.32;;;7.82;;
67566;SDS011;54394;53.540;49.402;2022-08-04T07:19:32;12.70;;;6.10;;
67566;SDS011;54394;53.540;49.402;2022-08-04T07:21:59;13.50;;;6.72;;
67566;SDS011;54394;53.540;49.402;2022-08-04T07:24:31;12.80;;;7.90;;
67566;SDS011;54394;53.540;49.402;2022-08-04T07:26:58;11.15;;;6.95;;
67566;SDS011;54394;53.540;49.402;2022-08-04T07:29:25;10.90;;;5.55;;
67566;SDS011;54394;53.540;49.402;2022-08-04T07:31:52;7.25;;;5.55;;
67566;SDS011;54394;53.540;49.402;2022-08-04T07:34:19;9.18;;;6.47;;
67566;SDS011;54394;53.540;49.402;2022-08-04T07:36:46;10.35;;;6.62;;
67566;SDS011;54394;53.540;49.402;2022-08-04T07:39:13;10.73;;;6.07;;
67566;SDS011;54394;53.540;49.402;2022-08-04T07:41:40;9.23;;;6.50;;
67566;SDS011;54394;53.540;49.402;2022-08-04T07:44:08;10.95;;;6.32;;
67566;SDS011;54394;53.540;49.402;2022-08-04T07:46:37;15.45;;;8.00;;
67566;SDS011;54394;53.540;49.402;2022-08-04T07:49:03;18.87;;;7.65;;
67566;SDS011;54394;53.540;49.402;2022-08-04T07:51:30;12.25;;;7.72;;
67566;SDS011;54394;53.540;49.402;2022-08-04T07:53:57;18.30;;;6.18;;
67566;SDS011;54394;53.540;49.402;2022-08-04T07:56:25;11.73;;;6.93;;
67566;SDS011;54394;53.540;49.402;2022-08-04T07:58:51;11.52;;;7.22;;
67566;SDS011;54394;53.540;49.402;2022-08-04T08:01:18;16.83;;;6.62;;
67566;SDS011;54394;53.540;49.402;2022-08-04T08:03:44;14.82;;;7.78;;
67566;SDS011;54394;53.540;49.402;2022-08-04T08:06:10;9.13;;;6.35;;
67566;SDS011;54394;53.540;49.402;2022-08-04T08:08:37;12.60;;;6.78;;
67566;SDS011;54394;53.540;49.402;2022-08-04T08:11:04;14.60;;;6.72;;
67566;SDS011;54394;53.540;49.402;2022-08-04T08:13:31;8.93;;;5.93;;
67566;SDS011;54394;53.540;49.402;2022-08-04T08:16:00;9.57;;;6.28;;
67566;SDS011;54394;53.540;49.402;2022-08-04T08:18:27;9.10;;;6.60;;
67566;SDS011;54394;53.540;49.402;2022-08-04T08:20:54;8.82;;;5.80;;
67566;SDS011;54394;53.540;49.402;2022-08-04T08:23:20;7.15;;;5.53;;
67566;SDS011;54394;53.540;49.402;2022-08-04T08:26:04;14.27;;;5.80;;
67566;SDS011;54394;53.540;49.402;2022-08-04T08:28:31;16.23;;;5.30;;
67566;SDS011;54394;53.540;49.402;2022-08-04T08:30:57;4.20;;;3.37;;
67566;SDS011;54394;53.540;49.402;2022-08-04T08:33:35;11.25;;;4.28;;
67566;SDS011;54394;53.540;49.402;2022-08-04T08:36:33;11.57;;;5.43;;
67566;SDS011;54394;53.540;49.402;2022-08-04T08:47:48;8.57;;;4.18;;
67566;SDS011;54394;53.540;49.402;2022-08-04T09:00:41;5.05;;;4.00;;
67566;SDS011;54394;53.540;49.402;2022-08-04T09:05:50;13.62;;;7.05;;
67566;SDS011;54394;53.540;49.402;2022-08-04T09:11:14;17.95;;;8.32;;
67566;SDS011;54394;53.540;49.402;2022-08-04T09:14:00;11.75;;;7.28;;
67566;SDS011;54394;53.540;49.402;2022-08-04T09:16:43;14.82;;;8.32;;
67566;SDS011;54394;53.540;49.402;2022-08-04T09:21:57;19.37;;;7.70;;
67566;SDS011;54394;53.540;49.402;2022-08-04T09:27:01;12.57;;;6.68;;
67566;SDS011;54394;53.540;49.402;2022-08-04T09:29:39;11.50;;;6.60;;
67566;SDS011;54394;53.540;49.402;2022-08-04T09:38:09;12.73;;;7.25;;
67566;SDS011;54394;53.540;49.402;2022-08-04T09:46:15;15.73;;;7.80;;
67566;SDS011;54394;53.540;49.402;2022-08-04T09:48:51;18.35;;;8.35;;
67566;SDS011;54394;53.540;49.402;2022-08-04T09:52:15;18.45;;;8.02;;
67566;SDS011;54394;53.540;49.402;2022-08-04T09:54:26;14.40;;;7.25;;
67566;SDS011;54394;53.540;49.402;2022-08-04T09:57:12;14.10;;;5.43;;
67566;SDS011;54394;53.540;49.402;2022-08-04T10:04:58;10.07;;;5.20;;
67566;SDS011;54394;53.540;49.402;2022-08-04T10:09:59;8.15;;;5.55;;
67566;SDS011;54394;53.540;49.402;2022-08-04T10:12:33;14.00;;;6.12;;
67566;SDS011;54394;53.540;49.402;2022-08-04T10:17:49;7.45;;;4.68;;
67566;SDS011;54394;53.540;49.402;2022-08-04T10:20:26;6.70;;;5.32;;
67566;SDS011;54394;53.540;49.402;2022-08-04T10:26:41;9.10;;;5.80;;
67566;SDS011;54394;53.540;49.402;2022-08-04T10:28:49;5.70;;;5.12;;
67566;SDS011;54394;53.540;49.402;2022-08-04T10:31:19;8.10;;;5.93;;
67566;SDS011;54394;53.540;49.402;2022-08-04T10:36:44;8.25;;;4.50;;
67566;SDS011;54394;53.540;49.402;2022-08-04T10:39:15;10.93;;;5.25;;
67566;SDS011;54394;53.540;49.402;2022-08-04T10:41:55;9.48;;;5.32;;
67566;SDS011;54394;53.540;49.402;2022-08-04T10:44:37;9.02;;;5.05;;
67566;SDS011;54394;53.540;49.402;2022-08-04T10:47:19;6.30;;;4.15;;
67566;SDS011;54394;53.540;49.402;2022-08-04T10:49:54;8.57;;;4.07;;
67566;SDS011;54394;53.540;49.402;2022-08-04T10:52:23;7.68;;;4.10;;
67566;SDS011;54394;53.540;49.402;2022-08-04T10:57:33;9.93;;;4.32;;
67566;SDS011;54394;53.540;49.402;2022-08-04T11:07:59;4.07;;;2.95;;
67566;SDS011;54394;53.540;49.402;2022-08-04T11:10:31;2.62;;;2.42;;
67566;SDS011;54394;53.540;49.402;2022-08-04T11:13:00;3.87;;;2.75;;
67566;SDS011;54394;53.540;49.402;2022-08-04T11:15:35;4.43;;;3.75;;
67566;SDS011;54394;53.540;49.402;2022-08-04T11:18:14;5.53;;;3.33;;
67566;SDS011;54394;53.540;49.402;2022-08-04T11:21:00;3.47;;;3.15;;
67566;SDS011;54394;53.540;49.402;2022-08-04T11:23:32;7.78;;;3.87;;
67566;SDS011;54394;53.540;49.402;2022-08-04T11:26:08;5.72;;;3.10;;
67566;SDS011;54394;53.540;49.402;2022-08-04T11:31:35;3.15;;;2.83;;
67566;SDS011;54394;53.540;49.402;2022-08-04T11:34:26;7.00;;;3.50;;
67566;SDS011;54394;53.540;49.402;2022-08-04T11:39:43;5.53;;;3.58;;
67566;SDS011;54394;53.540;49.402;2022-08-04T11:45:02;4.15;;;2.83;;
67566;SDS011;54394;53.540;49.402;2022-08-04T11:50:21;5.57;;;3.60;;
67566;SDS011;54394;53.540;49.402;2022-08-04T11:52:48;5.40;;;3.25;;
67566;SDS011;54394;53.540;49.402;2022-08-04T11:55:17;3.05;;;2.75;;
67566;SDS011;54394;53.540;49.402;2022-08-04T11:57:45;2.85;;;2.12;;
67566;SDS011;54394;53.540;49.402;2022-08-04T12:00:13;3.50;;;3.03;;
67566;SDS011;54394;53.540;49.402;2022-08-04T12:05:34;5.93;;;3.70;;
67566;SDS011;54394;53.540;49.402;2022-08-04T12:19:42;5.25;;;3.78;;
67566;SDS011;54394;53.540;49.402;2022-08-04T12:22:21;1.60;;;1.50;;
67566;SDS011;54394;53.540;49.402;2022-08-04T12:25:00;5.83;;;3.90;;
67566;SDS011;54394;53.540;49.402;2022-08-04T12:27:30;2.00;;;1.80;;
67566;SDS011;54394;53.540;49.402;2022-08-04T12:29:58;5.20;;;2.10;;
67566;SDS011;54394;53.540;49.402;2022-08-04T12:35:13;4.12;;;2.85;;
67566;SDS011;54394;53.540;49.402;2022-08-04T12:37:43;4.80;;;2.55;;
67566;SDS011;54394;53.540;49.402;2022-08-04T12:40:19;21.92;;;13.93;;
67566;SDS011;54394;53.540;49.402;2022-08-04T12:45:40;13.70;;;11.00;;
67566;SDS011;54394;53.540;49.402;2022-08-04T12:48:07;22.62;;;17.02;;
67566;SDS011;54394;53.540;49.402;2022-08-04T12:50:34;21.42;;;16.73;;
67566;SDS011;54394;53.540;49.402;2022-08-04T12:53:01;26.83;;;17.40;;
67566;SDS011;54394;53.540;49.402;2022-08-04T12:55:36;56.97;;;37.40;;
67566;SDS011;54394;53.540;49.402;2022-08-04T12:58:09;63.78;;;44.90;;
67566;SDS011;54394;53.540;49.402;2022-08-04T13:00:37;162.35;;;94.43;;
67566;SDS011;54394;53.540;49.402;2022-08-04T13:03:07;135.12;;;76.18;;
67566;SDS011;54394;53.540;49.402;2022-08-04T13:05:36;70.35;;;46.00;;
67566;SDS011;54394;53.540;49.402;2022-08-04T13:08:04;58.28;;;42.65;;
67566;SDS011;54394;53.540;49.402;2022-08-04T13:10:31;48.83;;;34.75;;
67566;SDS011;54394;53.540;49.402;2022-08-04T13:13:02;44.60;;;33.75;;
67566;SDS011;54394;53.540;49.402;2022-08-04T13:15:29;16.12;;;14.48;;
67566;SDS011;54394;53.540;49.402;2022-08-04T13:18:04;31.95;;;22.33;;
67566;SDS011;54394;53.540;49.402;2022-08-04T13:20:33;22.25;;;19.10;;
67566;SDS011;54394;53.540;49.402;2022-08-04T13:23:09;34.75;;;26.77;;
67566;SDS011;54394;53.540;49.402;2022-08-04T13:25:39;38.28;;;29.00;;
67566;SDS011;54394;53.540;49.402;2022-08-04T13:28:11;19.70;;;15.10;;
67566;SDS011;54394;53.540;49.402;2022-08-04T13:30:39;19.27;;;16.00;;
67566;SDS011;54394;53.540;49.402;2022-08-04T13:33:09;20.42;;;16.23;;
67566;SDS011;54394;53.540;49.402;2022-08-04T13:35:35;30.20;;;21.55;;
67566;SDS011;54394;53.540;49.402;2022-08-04T13:38:09;31.05;;;20.70;;
67566;SDS011;54394;53.540;49.402;2022-08-04T13:40:42;16.62;;;13.57;;
67566;SDS011;54394;53.540;49.402;2022-08-04T13:43:12;30.05;;;22.27;;
67566;SDS011;54394;53.540;49.402;2022-08-04T13:45:50;13.27;;;11.38;;
67566;SDS011;54394;53.540;49.402;2022-08-04T13:48:24;20.12;;;16.50;;
67566;SDS011;54394;53.540;49.402;2022-08-04T13:50:50;13.88;;;11.63;;
67566;SDS011;54394;53.540;49.402;2022-08-04T13:53:16;19.65;;;15.38;;
67566;SDS011;54394;53.540;49.402;2022-08-04T13:55:43;27.25;;;18.45;;
67566;SDS011;54394;53.540;49.402;2022-08-04T13:58:30;17.77;;;13.35;;
67566;SDS011;54394;53.540;49.402;2022-08-04T14:01:01;14.18;;;12.55;;
67566;SDS011;54394;53.540;49.402;2022-08-04T14:03:36;13.32;;;9.95;;
67566;SDS011;54394;53.540;49.402;2022-08-04T14:06:23;13.98;;;10.40;;
67566;SDS011;54394;53.540;49.402;2022-08-04T14:08:54;11.55;;;9.30;;
67566;SDS011;54394;53.540;49.402;2022-08-04T14:11:38;18.73;;;8.90;;
67566;SDS011;54394;53.540;49.402;2022-08-04T14:14:15;11.30;;;8.45;;
67566;SDS011;54394;53.540;49.402;2022-08-04T14:19:28;8.45;;;6.93;;
67566;SDS011;54394;53.540;49.402;2022-08-04T14:27:29;12.02;;;7.72;;
67566;SDS011;54394;53.540;49.402;2022-08-04T14:30:06;13.43;;;7.62;;
67566;SDS011;54394;53.540;49.402;2022-08-04T14:32:35;8.70;;;6.40;;
67566;SDS011;54394;53.540;49.402;2022-08-04T14:35:22;10.82;;;6.93;;
67566;SDS011;54394;53.540;49.402;2022-08-04T14:37:52;8.55;;;7.45;;
67566;SDS011;54394;53.540;49.402;2022-08-04T14:40:23;12.13;;;7.20;;
67566;SDS011;54394;53.540;49.402;2022-08-04T14:42:50;15.05;;;6.18;;
67566;SDS011;54394;53.540;49.402;2022-08-04T14:45:16;10.20;;;6.45;;
67566;SDS011;54394;53.540;49.402;2022-08-04T14:47:44;11.07;;;8.88;;
67566;SDS011;54394;53.540;49.402;2022-08-04T14:50:11;13.68;;;8.60;;
67566;SDS011;54394;53.540;49.402;2022-08-04T14:52:38;19.90;;;10.05;;
67566;SDS011;54394;53.540;49.402;2022-08-04T14:55:23;12.63;;;8.45;;
67566;SDS011;54394;53.540;49.402;2022-08-04T14:57:49;21.15;;;10.70;;
67566;SDS011;54394;53.540;49.402;2022-08-04T15:00:34;10.02;;;8.02;;
67566;SDS011;54394;53.540;49.402;2022-08-04T15:03:03;13.30;;;9.18;;
67566;SDS011;54394;53.540;49.402;2022-08-04T15:05:33;19.85;;;9.38;;
67566;SDS011;54394;53.540;49.402;2022-08-04T15:08:00;11.52;;;8.00;;
67566;SDS011;54394;53.540;49.402;2022-08-04T15:10:26;14.00;;;8.43;;
67566;SDS011;54394;53.540;49.402;2022-08-04T15:12:53;10.38;;;6.85;;
67566;SDS011;54394;53.540;49.402;2022-08-04T15:15:20;15.95;;;6.25;;
67566;SDS011;54394;53.540;49.402;2022-08-04T15:17:47;13.85;;;7.40;;
67566;SDS011;54394;53.540;49.402;2022-08-04T15:20:13;13.70;;;7.37;;
67566;SDS011;54394;53.540;49.402;2022-08-04T15:22:41;15.43;;;7.93;;
67566;SDS011;54394;53.540;49.402;2022-08-04T15:25:07;17.95;;;9.43;;
67566;SDS011;54394;53.540;49.402;2022-08-04T15:27:35;16.83;;;10.20;;
67566;SDS011;54394;53.540;49.402;2022-08-04T15:30:04;14.48;;;9.90;;
67566;SDS011;54394;53.540;49.402;2022-08-04T15:32:33;18.33;;;11.27;;
67566;SDS011;54394;53.540;49.402;2022-08-04T15:35:04;12.30;;;8.23;;
67566;SDS011;54394;53.540;49.402;2022-08-04T15:37:39;13.35;;;7.97;;
67566;SDS011;54394;53.540;49.402;2022-08-04T15:40:12;20.48;;;9.27;;
67566;SDS011;54394;53.540;49.402;2022-08-04T15:42:45;11.52;;;8.68;;
67566;SDS011;54394;53.540;49.402;2022-08-04T15:50:29;9.15;;;7.00;;
67566;SDS011;54394;53.540;49.402;2022-08-04T15:55:31;9.25;;;7.03;;
67566;SDS011;54394;53.540;49.402;2022-08-04T15:58:03;14.02;;;7.07;;
67566;SDS011;54394;53.540;49.402;2022-08-04T16:08:25;15.02;;;6.20;;
67566;SDS011;54394;53.540;49.402;2022-08-04T16:10:51;12.37;;;6.40;;
67566;SDS011;54394;53.540;49.402;2022-08-04T16:13:21;7.40;;;5.87;;
67566;SDS011;54394;53.540;49.402;2022-08-04T16:15:54;8.27;;;5.53;;
67566;SDS011;54394;53.540;49.402;2022-08-04T16:20:53;12.02;;;8.30;;
67566;SDS011;54394;53.540;49.402;2022-08-04T16:23:30;14.00;;;8.52;;
67566;SDS011;54394;53.540;49.402;2022-08-04T16:29:23;21.80;;;7.80;;
67566;SDS011;54394;53.540;49.402;2022-08-04T16:37:14;10.73;;;7.72;;
67566;SDS011;54394;53.540;49.402;2022-08-04T16:39:42;14.85;;;7.47;;
67566;SDS011;54394;53.540;49.402;2022-08-04T16:50:13;15.13;;;8.15;;
67566;SDS011;54394;53.540;49.402;2022-08-04T16:52:41;20.00;;;9.10;;
67566;SDS011;54394;53.540;49.402;2022-08-04T16:55:08;20.88;;;10.23;;
67566;SDS011;54394;53.540;49.402;2022-08-04T16:57:34;22.67;;;9.70;;
67566;SDS011;54394;53.540;49.402;2022-08-04T17:00:00;21.55;;;11.60;;
67566;SDS011;54394;53.540;49.402;2022-08-04T17:02:26;30.58;;;11.82;;
67566;SDS011;54394;53.540;49.402;2022-08-04T17:04:52;25.05;;;11.30;;
67566;SDS011;54394;53.540;49.402;2022-08-04T17:07:18;27.30;;;12.13;;
67566;SDS011;54394;53.540;49.402;2022-08-04T17:09:48;15.93;;;10.85;;
67566;SDS011;54394;53.540;49.402;2022-08-04T17:12:14;21.30;;;12.77;;
67566;SDS011;54394;53.540;49.402;2022-08-04T17:14:40;18.95;;;11.05;;
67566;SDS011;54394;53.540;49.402;2022-08-04T17:17:07;19.40;;;11.68;;
67566;SDS011;54394;53.540;49.402;2022-08-04T17:19:33;23.85;;;10.50;;
67566;SDS011;54394;53.540;49.402;2022-08-04T17:22:00;23.27;;;10.52;;
67566;SDS011;54394;53.540;49.402;2022-08-04T17:24:29;22.90;;;9.80;;
67566;SDS011;54394;53.540;49.402;2022-08-04T17:26:55;19.08;;;9.70;;
67566;SDS011;54394;53.540;49.402;2022-08-04T17:29:22;15.65;;;9.40;;
67566;SDS011;54394;53.540;49.402;2022-08-04T17:31:53;19.50;;;8.30;;
67566;SDS011;54394;53.540;49.402;2022-08-04T17:34:20;13.07;;;7.90;;
67566;SDS011;54394;53.540;49.402;2022-08-04T17:36:46;22.27;;;7.90;;
67566;SDS011;54394;53.540;49.402;2022-08-04T17:39:17;20.15;;;9.25;;
67566;SDS011;54394;53.540;49.402;2022-08-04T17:41:45;15.05;;;7.32;;
67566;SDS011;54394;53.540;49.402;2022-08-04T17:44:11;15.77;;;7.95;;
67566;SDS011;54394;53.540;49.402;2022-08-04T17:46:44;14.90;;;8.45;;
67566;SDS011;54394;53.540;49.402;2022-08-04T17:51:48;15.32;;;7.85;;
67566;SDS011;54394;53.540;49.402;2022-08-04T17:56:52;22.90;;;8.70;;
67566;SDS011;54394;53.540;49.402;2022-08-04T18:04:23;21.55;;;10.43;;
67566;SDS011;54394;53.540;49.402;2022-08-04T18:06:50;20.75;;;9.82;;
67566;SDS011;54394;53.540;49.402;2022-08-04T18:12:23;20.62;;;8.95;;
67566;SDS011;54394;53.540;49.402;2022-08-04T18:15:00;24.90;;;9.20;;
67566;SDS011;54394;53.540;49.402;2022-08-04T18:17:35;24.70;;;9.93;;
67566;SDS011;54394;53.540;49.402;2022-08-04T18:20:03;19.87;;;8.93;;
67566;SDS011;54394;53.540;49.402;2022-08-04T18:22:32;23.67;;;9.13;;
67566;SDS011;54394;53.540;49.402;2022-08-04T18:24:58;20.00;;;9.93;;
67566;SDS011;54394;53.540;49.402;2022-08-04T18:27:25;19.98;;;8.00;;
67566;SDS011;54394;53.540;49.402;2022-08-04T18:29:55;20.10;;;7.18;;
67566;SDS011;54394;53.540;49.402;2022-08-04T18:32:21;17.95;;;8.00;;
67566;SDS011;54394;53.540;49.402;2022-08-04T18:34:50;22.20;;;10.35;;
67566;SDS011;54394;53.540;49.402;2022-08-04T18:37:17;16.23;;;6.05;;
67566;SDS011;54394;53.540;49.402;2022-08-04T18:39:43;12.13;;;6.20;;
67566;SDS011;54394;53.540;49.402;2022-08-04T18:42:10;14.93;;;6.45;;
67566;SDS011;54394;53.540;49.402;2022-08-04T18:44:37;11.35;;;6.87;;
67566;SDS011;54394;53.540;49.402;2022-08-04T18:47:03;13.93;;;6.72;;
67566;SDS011;54394;53.540;49.402;2022-08-04T18:49:30;12.77;;;6.70;;
67566;SDS011;54394;53.540;49.402;2022-08-04T18:51:57;13.62;;;6.00;;
67566;SDS011;54394;53.540;49.402;2022-08-04T18:54:24;21.42;;;6.75;;
67566;SDS011;54394;53.540;49.402;2022-08-04T18:56:50;18.52;;;8.25;;
67566;SDS011;54394;53.540;49.402;2022-08-04T18:59:17;23.87;;;8.77;;
67566;SDS011;54394;53.540;49.402;2022-08-04T19:01:44;22.23;;;7.72;;
67566;SDS011;54394;53.540;49.402;2022-08-04T19:04:10;15.27;;;7.45;;
67566;SDS011;54394;53.540;49.402;2022-08-04T19:06:37;14.73;;;7.95;;
67566;SDS011;54394;53.540;49.402;2022-08-04T19:09:03;20.60;;;9.10;;
67566;SDS011;54394;53.540;49.402;2022-08-04T19:11:30;13.55;;;7.95;;
67566;SDS011;54394;53.540;49.402;2022-08-04T19:14:00;17.67;;;7.75;;
67566;SDS011;54394;53.540;49.402;2022-08-04T19:16:26;19.33;;;11.10;;
67566;SDS011;54394;53.540;49.402;2022-08-04T19:18:53;18.48;;;9.18;;
67566;SDS011;54394;53.540;49.402;2022-08-04T19:21:19;22.00;;;9.55;;
67566;SDS011;54394;53.540;49.402;2022-08-04T19:23:45;11.73;;;6.50;;
67566;SDS011;54394;53.540;49.402;2022-08-04T19:26:11;18.00;;;8.35;;
67566;SDS011;54394;53.540;49.402;2022-08-04T19:28:37;18.90;;;8.02;;
67566;SDS011;54394;53.540;49.402;2022-08-04T19:31:04;14.43;;;6.78;;
67566;SDS011;54394;53.540;49.402;2022-08-04T19:33:32;15.38;;;6.87;;
67566;SDS011;54394;53.540;49.402;2022-08-04T19:35:58;13.38;;;5.95;;
67566;SDS011;54394;53.540;49.402;2022-08-04T19:38:25;11.40;;;5.90;;
67566;SDS011;54394;53.540;49.402;2022-08-04T19:40:51;13.82;;;6.12;;
67566;SDS011;54394;53.540;49.402;2022-08-04T19:43:17;18.27;;;6.15;;
67566;SDS011;54394;53.540;49.402;2022-08-04T19:45:45;15.50;;;6.47;;
67566;SDS011;54394;53.540;49.402;2022-08-04T19:48:11;14.87;;;7.20;;
67566;SDS011;54394;53.540;49.402;2022-08-04T19:50:37;18.02;;;7.55;;
67566;SDS011;54394;53.540;49.402;2022-08-04T19:53:03;20.37;;;8.45;;
67566;SDS011;54394;53.540;49.402;2022-08-04T19:55:29;11.63;;;6.65;;
67566;SDS011;54394;53.540;49.402;2022-08-04T19:57:59;12.45;;;6.28;;
67566;SDS011;54394;53.540;49.402;2022-08-04T20:00:27;20.25;;;7.18;;